Impacts TAF Board
For situational awareness. Not to be used for flight planning purposes.
IDs:

KJCT - Junction/Kimble Cnty, TX, US

Issued at 0520 UTC 19 Aug 2019
Updated at 0526 UTC 19 Aug 2019
Potential Impact None Slight Moderate High
Time<<19/18Z 19/19Z 19/20Z 19/21Z 19/22Z 19/23Z 20/00Z 20/01Z 20/02Z 20/03Z 20/04Z 20/05Z 20/06Z>>
Type PRVL PRVL PRVL PRVL PRVL PRVL PRVL PRVL PRVL PRVL PRVL PRVL
VIS >6 >6 >6 >6 >6 >6 >6 >6 >6 >6 >6 >6
CIG -- -- -- -- -- -- -- -- -- -- -- --
Cover SKC SKC SKC SKC SKC SKC SKC SKC SKC SKC SKC SKC
FltCat VFR VFR VFR VFR VFR VFR VFR VFR VFR VFR VFR VFR
WX -- -- -- -- -- -- -- -- -- -- -- --
WDir 180 180 180 180 180 180 180 180 180 180 180 180
WSpd 9 9 9 9 9 9 9 9 9 9 9 9
WGst -- -- -- -- -- -- -- -- -- -- -- --
Raw TAF
KJCT 190520Z 1906/2006 15006KT P6SM SKC
  FM191500 18009KT P6SM SKC


METAR Board
Radar Display
Forecast Discussion
For situational awareness. Not to be used for flight planning purposes.